Time;durP1;ratioP1;P1;durP2;ratioP2;P2;SDS_P1;SDS_P2;PMS_P1;PMS_P2;Temp;Humidity;BMP_temperature;BMP_pressure;BME280_temperature;BME280_humidity;BME280_pressure;Samples;Min_cycle;Max_cycle;Signal;HPM_P1;HPM_P2
2022/05/26 00:01:05;;;;;;;9.82;7.80;;;14.90;99.10;;;;;;5038874;28;20095;-63
2022/05/26 00:03:35;;;;;;;8.57;7.68;;;14.90;99.30;;;;;;5044312;28;20040;-63
2022/05/26 00:06:01;;;;;;;8.05;7.35;;;14.90;99.40;;;;;;5037300;28;20022;-63
2022/05/26 00:08:28;;;;;;;8.48;7.60;;;14.90;99.50;;;;;;5035337;28;20044;-63
2022/05/26 00:10:55;;;;;;;7.53;6.82;;;14.80;99.60;;;;;;5041325;28;20033;-64
2022/05/26 00:13:21;;;;;;;8.93;7.15;;;14.80;99.70;;;;;;5031581;28;20025;-63
2022/05/26 00:15:46;;;;;;;7.78;6.97;;;14.80;99.90;;;;;;5042478;28;20158;-63
2022/05/26 00:18:12;;;;;;;8.77;7.22;;;14.80;99.90;;;;;;5038640;28;20122;-64
2022/05/26 00:20:37;;;;;;;15.63;8.43;;;14.80;99.90;;;;;;5035439;28;20021;-63
2022/05/26 00:23:03;;;;;;;11.13;7.82;;;14.80;99.90;;;;;;5031392;28;20404;-63
2022/05/26 00:25:29;;;;;;;8.35;6.75;;;14.80;99.90;;;;;;5030119;28;20596;-63
2022/05/26 00:27:55;;;;;;;8.65;6.97;;;14.70;99.90;;;;;;5040822;28;20476;-63
2022/05/26 00:30:21;;;;;;;8.85;6.95;;;14.80;99.90;;;;;;5036850;28;20024;-63
2022/05/26 00:32:46;;;;;;;8.00;6.82;;;14.70;99.90;;;;;;5036191;28;20373;-63
2022/05/26 00:35:12;;;;;;;8.15;6.78;;;14.70;99.90;;;;;;5038520;28;20032;-63
2022/05/26 00:37:38;;;;;;;8.02;7.20;;;14.70;99.90;;;;;;5038571;28;20435;-63
2022/05/26 00:40:06;;;;;;;7.20;6.13;;;14.70;99.90;;;;;;5028969;28;20101;-63
2022/05/26 00:42:31;;;;;;;8.25;7.45;;;14.70;99.90;;;;;;5032787;28;20431;-64
2022/05/26 00:44:57;;;;;;;10.15;7.38;;;14.70;99.90;;;;;;5043481;28;20078;-63
2022/05/26 00:47:25;;;;;;;6.72;6.05;;;14.70;99.90;;;;;;5032644;28;20531;-64
2022/05/26 00:49:58;;;;;;;9.15;6.78;;;14.70;99.90;;;;;;5035016;28;20642;-63
2022/05/26 00:52:46;;;;;;;9.60;7.05;;;14.70;99.90;;;;;;5038331;28;20059;-63
2022/05/26 00:55:20;;;;;;;7.63;6.82;;;14.70;99.90;;;;;;5035279;28;20116;-64
2022/05/26 00:58:07;;;;;;;9.65;7.38;;;14.70;99.90;;;;;;5042102;28;20076;-63
2022/05/26 01:00:36;;;;;;;9.50;7.32;;;14.70;99.90;;;;;;5032146;28;20409;-63
2022/05/26 01:03:10;;;;;;;7.93;6.90;;;14.70;99.90;;;;;;5035616;28;20030;-63
2022/05/26 01:05:48;;;;;;;8.63;6.95;;;14.70;99.90;;;;;;5032425;28;20041;-63
2022/05/26 01:08:24;;;;;;;8.13;6.88;;;14.70;99.90;;;;;;5037761;28;20040;-63
2022/05/26 01:10:52;;;;;;;11.02;7.95;;;14.70;99.90;;;;;;5039602;28;20025;-63
2022/05/26 01:13:19;;;;;;;9.13;8.20;;;14.70;99.90;;;;;;5038667;28;20369;-63
2022/05/26 01:15:57;;;;;;;10.70;9.00;;;14.70;99.90;;;;;;5035979;28;20543;-64
2022/05/26 01:19:02;;;;;;;10.07;8.90;;;14.70;99.90;;;;;;5034833;28;20053;-64
2022/05/26 01:21:38;;;;;;;10.57;8.13;;;14.70;99.90;;;;;;5031017;28;20029;-63
2022/05/26 01:24:45;;;;;;;9.40;8.38;;;14.70;99.90;;;;;;5031884;28;20037;-63
2022/05/26 01:27:26;;;;;;;13.57;9.57;;;14.70;99.90;;;;;;5039919;28;20519;-63
2022/05/26 01:30:10;;;;;;;10.52;7.90;;;14.70;99.90;;;;;;5037727;28;20490;-64
2022/05/26 01:32:55;;;;;;;11.32;9.40;;;14.70;99.90;;;;;;5032296;28;20112;-63
2022/05/26 01:35:29;;;;;;;12.15;9.10;;;14.70;99.90;;;;;;5041536;28;20070;-63
2022/05/26 01:38:14;;;;;;;14.25;10.18;;;14.70;99.90;;;;;;5047750;28;20068;-63
2022/05/26 01:40:46;;;;;;;13.18;9.07;;;14.70;99.90;;;;;;5032434;28;20014;-63
2022/05/26 01:43:31;;;;;;;12.40;9.27;;;14.70;99.90;;;;;;5043314;28;20029;-63
2022/05/26 01:46:20;;;;;;;11.63;9.43;;;14.70;99.90;;;;;;5027106;28;20025;-63
2022/05/26 01:49:02;;;;;;;13.88;10.15;;;14.80;99.90;;;;;;5033625;28;20099;-63
2022/05/26 01:51:40;;;;;;;14.48;11.20;;;14.70;99.90;;;;;;5032664;28;20038;-63
2022/05/26 01:54:28;;;;;;;12.45;9.75;;;14.80;99.90;;;;;;5031710;28;20037;-63
2022/05/26 01:57:10;;;;;;;15.20;10.80;;;14.70;99.90;;;;;;5042689;28;20554;-63
2022/05/26 01:59:41;;;;;;;13.07;10.73;;;14.80;99.90;;;;;;5043300;28;20018;-63
2022/05/26 02:02:14;;;;;;;14.52;9.50;;;14.80;99.90;;;;;;5042978;28;20057;-63
2022/05/26 02:04:46;;;;;;;14.60;10.55;;;14.80;99.90;;;;;;5039125;28;20023;-63
2022/05/26 02:07:18;;;;;;;13.35;10.05;;;14.80;99.90;;;;;;5033260;28;20028;-64
2022/05/26 02:09:45;;;;;;;15.77;9.63;;;14.80;99.90;;;;;;5035813;28;20405;-63
2022/05/26 02:12:26;;;;;;;13.77;9.70;;;14.80;99.90;;;;;;5032005;28;20033;-63
2022/05/26 02:15:03;;;;;;;15.23;9.80;;;14.90;99.90;;;;;;5034353;28;20456;-63
2022/05/26 02:17:37;;;;;;;12.18;9.35;;;14.90;99.90;;;;;;5031310;28;20496;-63
2022/05/26 02:20:43;;;;;;;13.43;10.32;;;14.90;99.90;;;;;;5034069;28;20025;-63
2022/05/26 02:23:26;;;;;;;14.50;10.35;;;14.90;99.90;;;;;;5033994;28;20028;-63
2022/05/26 02:25:53;;;;;;;22.05;11.55;;;14.90;99.90;;;;;;5033864;28;20060;-63
2022/05/26 02:28:19;;;;;;;19.40;11.23;;;14.80;99.90;;;;;;5033603;28;20029;-63
2022/05/26 02:30:45;;;;;;;15.90;11.35;;;14.90;99.90;;;;;;5039254;28;20037;-63
2022/05/26 02:33:14;;;;;;;14.30;9.98;;;14.80;99.90;;;;;;5042690;28;20546;-63
2022/05/26 02:35:43;;;;;;;19.23;11.23;;;14.80;99.90;;;;;;5036115;28;20032;-63
2022/05/26 02:38:08;;;;;;;18.30;10.35;;;14.90;99.90;;;;;;5041595;28;20022;-63
2022/05/26 02:40:34;;;;;;;17.35;11.00;;;14.90;99.90;;;;;;5037528;28;20448;-63
2022/05/26 02:43:10;;;;;;;14.45;9.02;;;14.90;99.90;;;;;;5035970;28;20458;-63
2022/05/26 02:46:00;;;;;;;14.20;9.20;;;14.90;99.90;;;;;;5038378;28;20116;-63
2022/05/26 02:48:39;;;;;;;;;;;14.90;99.90;;;;;;5035440;28;20029;-63
2022/05/26 02:51:24;;;;;;;17.02;8.30;;;14.80;99.90;;;;;;5039900;28;19909;-62
2022/05/26 02:54:01;;;;;;;14.73;7.82;;;14.80;99.90;;;;;;5039827;28;20030;-63
2022/05/26 02:57:09;;;;;;;15.88;10.35;;;14.80;99.90;;;;;;5038116;28;20095;-63
2022/05/26 02:59:51;;;;;;;17.05;9.15;;;14.80;99.90;;;;;;5045380;28;20084;-64
2022/05/26 03:02:32;;;;;;;15.80;8.57;;;14.80;99.90;;;;;;5038685;28;20032;-63
2022/05/26 03:05:12;;;;;;;19.08;10.23;;;14.80;99.90;;;;;;5036461;28;20496;-62
2022/05/26 03:07:41;;;;;;;14.23;8.95;;;14.80;99.90;;;;;;5041903;28;20040;-63
2022/05/26 03:10:08;;;;;;;13.77;9.23;;;14.80;99.90;;;;;;5036016;28;20124;-63
2022/05/26 03:12:36;;;;;;;18.42;8.85;;;14.80;99.90;;;;;;5036748;28;20028;-62
2022/05/26 03:15:05;;;;;;;18.58;9.60;;;14.80;99.90;;;;;;5040962;28;20032;-63
2022/05/26 03:17:30;;;;;;;19.25;10.18;;;14.80;99.90;;;;;;5034820;28;20028;-63
2022/05/26 03:19:56;;;;;;;18.48;9.15;;;14.80;99.90;;;;;;5036569;28;20108;-63
2022/05/26 03:22:21;;;;;;;18.27;9.10;;;14.80;99.90;;;;;;5036919;28;20097;-64
2022/05/26 03:24:47;;;;;;;15.02;8.88;;;14.80;99.90;;;;;;5034064;28;20040;-63
2022/05/26 03:27:13;;;;;;;14.35;8.02;;;14.80;99.90;;;;;;5032582;28;20037;-63
2022/05/26 03:29:38;;;;;;;17.35;7.80;;;14.80;99.90;;;;;;5034584;28;20037;-63
2022/05/26 03:32:05;;;;;;;18.85;8.65;;;14.80;99.90;;;;;;5033202;28;20030;-63
2022/05/26 03:42:45;;;;;;;16.40;8.10;;;14.70;99.90;;;;;;5038738;28;20074;-63
2022/05/26 03:45:12;;;;;;;15.07;8.20;;;14.80;99.90;;;;;;5033592;28;20033;-62
2022/05/26 03:47:39;;;;;;;16.17;8.30;;;14.70;99.90;;;;;;5042317;28;20550;-63
2022/05/26 03:50:05;;;;;;;24.27;9.35;;;14.70;99.90;;;;;;5035613;28;20068;-63
2022/05/26 03:52:32;;;;;;;15.73;7.43;;;14.70;99.90;;;;;;5033220;28;20049;-63
2022/05/26 03:54:57;;;;;;;16.60;6.93;;;14.70;99.90;;;;;;5052180;28;20041;-63
2022/05/26 03:57:28;;;;;;;15.63;6.68;;;14.70;99.90;;;;;;5035475;28;21023;-63
2022/05/26 03:59:54;;;;;;;17.05;6.70;;;14.80;99.90;;;;;;5033338;28;20037;-63
2022/05/26 04:02:19;;;;;;;13.13;6.55;;;14.70;99.90;;;;;;5039849;28;20049;-63
2022/05/26 04:04:45;;;;;;;17.42;6.70;;;14.80;99.90;;;;;;5037589;28;20033;-64
2022/05/26 04:07:12;;;;;;;20.55;7.18;;;14.70;99.90;;;;;;5033478;28;20060;-63
2022/05/26 04:09:37;;;;;;;15.45;6.22;;;14.70;99.90;;;;;;5030431;28;20028;-63
2022/05/26 04:12:05;;;;;;;15.93;6.25;;;14.70;99.90;;;;;;5037013;28;20025;-63
2022/05/26 04:14:31;;;;;;;11.18;5.28;;;14.70;99.90;;;;;;5036869;28;20474;-63
2022/05/26 04:16:58;;;;;;;16.13;6.57;;;14.80;99.90;;;;;;5033210;28;20352;-63
2022/05/26 04:19:23;;;;;;;16.10;6.63;;;14.70;99.90;;;;;;5035718;28;20604;-63
2022/05/26 04:24:33;;;;;;;12.88;6.03;;;14.80;99.90;;;;;;5033348;28;20040;-63
2022/05/26 04:26:58;;;;;;;20.38;7.28;;;14.80;99.90;;;;;;5035748;28;20032;-63
2022/05/26 04:29:24;;;;;;;18.65;6.25;;;14.70;99.90;;;;;;5035917;28;20151;-63
2022/05/26 04:31:51;;;;;;;15.98;6.28;;;14.80;99.90;;;;;;5032971;28;20036;-64
2022/05/26 04:34:17;;;;;;;19.05;6.95;;;14.80;99.90;;;;;;5032497;28;20028;-63
2022/05/26 04:36:43;;;;;;;14.77;6.53;;;14.80;99.90;;;;;;5038305;28;20496;-64
2022/05/26 04:39:09;;;;;;;13.50;5.72;;;14.80;99.90;;;;;;5029822;28;20025;-63
2022/05/26 04:41:34;;;;;;;19.92;6.45;;;14.80;99.90;;;;;;5035313;28;20026;-63
2022/05/26 04:44:00;;;;;;;15.23;5.90;;;14.80;99.90;;;;;;5043696;28;20044;-63
2022/05/26 04:46:25;;;;;;;17.20;6.35;;;14.80;99.90;;;;;;5032512;28;20026;-64
2022/05/26 04:48:51;;;;;;;17.60;5.72;;;14.80;99.90;;;;;;5030771;28;20523;-63
2022/05/26 04:51:16;;;;;;;14.98;5.97;;;14.80;99.90;;;;;;5040337;28;20063;-62
2022/05/26 04:53:42;;;;;;;18.15;6.03;;;14.80;99.90;;;;;;5058606;28;20028;-63
2022/05/26 04:56:07;;;;;;;15.85;5.50;;;14.80;99.90;;;;;;5037696;28;20034;-63
2022/05/26 04:58:33;;;;;;;14.48;5.40;;;14.80;99.90;;;;;;5037813;28;20464;-63
2022/05/26 05:00:58;;;;;;;10.57;4.00;;;14.80;99.90;;;;;;5034946;28;20104;-63
2022/05/26 05:03:24;;;;;;;19.73;6.53;;;14.90;99.90;;;;;;5034240;28;20029;-63
2022/05/26 05:05:49;;;;;;;14.57;4.90;;;14.90;99.90;;;;;;5032146;28;20028;-64
2022/05/26 05:08:15;;;;;;;15.27;5.57;;;15.00;99.90;;;;;;5030948;28;20531;-64
2022/05/26 05:10:40;;;;;;;16.45;6.35;;;15.00;99.90;;;;;;5034449;28;20025;-65
2022/05/26 05:13:09;;;;;;;17.50;6.25;;;15.00;99.90;;;;;;5038153;28;20036;-63
2022/05/26 05:15:44;;;;;;;14.80;5.75;;;15.00;99.90;;;;;;5036387;28;20134;-64
2022/05/26 05:18:10;;;;;;;11.73;5.82;;;15.10;99.90;;;;;;5032207;28;20116;-63
2022/05/26 05:20:37;;;;;;;14.90;5.70;;;15.10;99.90;;;;;;5037397;28;20112;-63
2022/05/26 05:23:07;;;;;;;20.40;7.25;;;15.10;99.90;;;;;;5034497;28;20449;-63
2022/05/26 05:25:38;;;;;;;18.30;5.60;;;15.20;99.90;;;;;;5042992;28;21151;-63
2022/05/26 05:28:11;;;;;;;16.48;6.00;;;15.20;99.90;;;;;;5029176;28;20096;-64
2022/05/26 05:31:05;;;;;;;17.50;5.97;;;15.20;99.90;;;;;;5036942;28;20481;-64
2022/05/26 05:33:46;;;;;;;15.10;4.65;;;15.20;99.90;;;;;;5031848;28;20147;-64
2022/05/26 05:36:27;;;;;;;17.13;5.78;;;15.20;99.90;;;;;;5040705;28;20021;-64
2022/05/26 05:38:53;;;;;;;18.40;5.97;;;15.30;99.90;;;;;;5050850;28;20013;-64
2022/05/26 05:41:20;;;;;;;14.63;5.15;;;15.40;99.90;;;;;;5051327;28;20027;-64
2022/05/26 05:43:47;;;;;;;19.85;5.18;;;15.40;99.90;;;;;;5049501;28;20029;-63
2022/05/26 05:46:14;;;;;;;17.63;5.90;;;15.40;99.90;;;;;;5052166;28;20388;-64
2022/05/26 05:48:43;;;;;;;14.95;4.80;;;15.40;99.90;;;;;;5051030;28;20105;-63
2022/05/26 05:51:09;;;;;;;14.13;5.00;;;15.40;99.90;;;;;;5052232;28;20028;-63
2022/05/26 05:53:35;;;;;;;20.13;5.47;;;15.50;99.90;;;;;;5032589;28;20432;-63
2022/05/26 05:56:00;;;;;;;13.88;4.50;;;15.50;99.90;;;;;;5032421;28;20026;-63
2022/05/26 05:58:26;;;;;;;17.38;5.43;;;15.50;99.90;;;;;;5032616;28;20041;-63
2022/05/26 06:00:51;;;;;;;12.77;4.10;;;15.60;99.90;;;;;;5032726;28;20018;-64
2022/05/26 06:03:17;;;;;;;14.55;6.50;;;15.70;99.90;;;;;;5032556;28;20465;-64
2022/05/26 06:05:43;;;;;;;14.00;3.90;;;15.70;99.90;;;;;;5050291;28;20017;-63
2022/05/26 06:08:08;;;;;;;12.35;3.85;;;15.70;99.90;;;;;;5052838;28;20029;-63
2022/05/26 06:10:34;;;;;;;12.77;3.70;;;15.80;99.90;;;;;;5048181;28;20032;-63
2022/05/26 06:13:00;;;;;;;13.68;5.32;;;15.80;99.90;;;;;;5050570;28;20167;-64
2022/05/26 06:15:26;;;;;;;13.30;4.47;;;15.80;99.90;;;;;;5053411;28;20017;-63
2022/05/26 06:17:51;;;;;;;14.90;4.30;;;15.80;99.90;;;;;;5048480;28;20013;-63
2022/05/26 06:20:17;;;;;;;14.18;5.38;;;15.90;99.90;;;;;;5050746;28;20096;-64
2022/05/26 06:22:44;;;;;;;16.27;5.00;;;15.90;99.90;;;;;;5050478;28;20028;-64
2022/05/26 06:25:12;;;;;;;11.57;4.22;;;16.00;99.80;;;;;;5053227;28;20036;-64
2022/05/26 06:30:25;;;;;;;17.55;4.60;;;16.00;99.60;;;;;;5052089;28;20137;-64
2022/05/26 06:38:25;;;;;;;12.52;3.72;;;16.20;99.30;;;;;;5054629;28;20031;-63
2022/05/26 06:40:52;;;;;;;12.82;4.00;;;16.20;99.10;;;;;;5048782;28;20017;-64
2022/05/26 06:43:18;;;;;;;15.77;4.40;;;16.30;98.90;;;;;;5036916;28;20014;-64
2022/05/26 06:45:45;;;;;;;14.82;4.50;;;16.30;98.60;;;;;;5054553;28;20021;-63
2022/05/26 06:48:12;;;;;;;13.15;4.30;;;16.40;98.50;;;;;;5050872;28;20033;-63
2022/05/26 06:50:39;;;;;;;13.02;4.28;;;16.40;98.50;;;;;;5049841;28;20037;-64
2022/05/26 06:53:04;;;;;;;17.23;4.28;;;16.50;98.40;;;;;;5045970;28;20049;-64
2022/05/26 06:55:30;;;;;;;16.23;4.53;;;16.50;98.40;;;;;;5048217;28;20205;-64
2022/05/26 06:57:56;;;;;;;16.08;4.75;;;16.60;98.30;;;;;;5042974;28;20086;-64
2022/05/26 07:00:21;;;;;;;12.93;4.22;;;16.60;98.10;;;;;;5046308;28;20049;-64
2022/05/26 07:02:47;;;;;;;10.90;4.03;;;16.70;98.10;;;;;;5047721;28;20122;-63
2022/05/26 07:05:14;;;;;;;15.38;4.43;;;16.70;97.70;;;;;;5053515;28;20381;-64
2022/05/26 07:07:40;;;;;;;10.68;3.60;;;16.70;97.50;;;;;;5053833;28;20576;-64
2022/05/26 07:10:08;;;;;;;17.05;4.70;;;16.70;97.40;;;;;;5054092;28;20045;-63
2022/05/26 07:12:34;;;;;;;18.13;4.05;;;16.70;97.40;;;;;;5049459;28;20036;-63
2022/05/26 07:14:59;;;;;;;11.23;4.07;;;16.80;97.40;;;;;;5054933;28;20025;-63
2022/05/26 07:17:25;;;;;;;9.82;3.70;;;16.80;97.40;;;;;;5055301;28;20104;-63
2022/05/26 07:19:52;;;;;;;12.82;4.32;;;16.90;97.30;;;;;;5055331;28;20425;-63
2022/05/26 07:22:18;;;;;;;11.48;3.60;;;17.00;97.20;;;;;;5053120;28;20388;-63
2022/05/26 07:24:45;;;;;;;10.48;4.20;;;17.10;96.90;;;;;;5054922;28;20477;-63
2022/05/26 07:27:10;;;;;;;10.20;2.92;;;17.20;96.50;;;;;;5053897;28;20104;-63
2022/05/26 07:29:36;;;;;;;8.65;2.63;;;17.20;96.10;;;;;;5049733;28;20115;-63
2022/05/26 07:32:03;;;;;;;11.27;3.22;;;17.20;95.90;;;;;;5052356;28;20017;-63
2022/05/26 07:34:29;;;;;;;13.35;3.90;;;17.20;95.60;;;;;;5047791;28;20078;-63
2022/05/26 07:42:25;;;;;;;8.77;2.88;;;17.30;94.80;;;;;;5045992;28;20095;-63
2022/05/26 07:44:53;;;;;;;9.70;2.83;;;17.30;94.90;;;;;;5046527;28;20036;-63
2022/05/26 07:47:19;;;;;;;5.97;2.40;;;17.40;94.40;;;;;;5044072;28;20039;-63
2022/05/26 07:49:49;;;;;;;8.55;2.85;;;17.40;94.40;;;;;;5048569;28;20395;-62
2022/05/26 07:52:15;;;;;;;5.93;2.20;;;17.50;94.00;;;;;;5052032;28;20044;-63
2022/05/26 07:54:42;;;;;;;5.97;2.40;;;17.60;93.50;;;;;;5045376;28;20028;-63
2022/05/26 07:57:22;;;;;;;7.15;2.28;;;17.70;93.20;;;;;;5053833;28;20029;-63
2022/05/26 07:59:49;;;;;;;9.55;2.90;;;17.80;92.80;;;;;;5071239;28;20016;-64
2022/05/26 08:02:15;;;;;;;7.45;2.35;;;17.80;92.80;;;;;;5048196;28;20036;-64
2022/05/26 08:04:40;;;;;;;11.05;2.45;;;17.80;92.60;;;;;;5047478;28;20413;-64
2022/05/26 08:07:06;;;;;;;6.55;2.25;;;17.90;92.40;;;;;;5068913;28;20029;-64
2022/05/26 08:09:32;;;;;;;7.57;2.28;;;17.90;92.20;;;;;;5052670;28;20059;-64
2022/05/26 08:11:57;;;;;;;8.15;2.33;;;18.00;92.00;;;;;;5040832;28;20018;-64
2022/05/26 08:14:23;;;;;;;7.78;2.28;;;18.10;91.70;;;;;;5065764;28;20338;-65
2022/05/26 08:16:49;;;;;;;9.73;2.83;;;18.10;91.30;;;;;;5057596;28;20051;-64
2022/05/26 08:19:14;;;;;;;9.43;2.67;;;18.20;91.10;;;;;;5051532;28;20449;-64
2022/05/26 08:21:40;;;;;;;9.45;2.40;;;18.10;90.70;;;;;;5051688;28;20017;-64
2022/05/26 08:24:06;;;;;;;5.78;2.20;;;18.00;90.30;;;;;;5048894;28;20049;-64
2022/05/26 08:26:32;;;;;;;8.57;2.60;;;18.00;90.50;;;;;;5050198;28;20040;-64
2022/05/26 08:28:58;;;;;;;6.55;2.53;;;18.10;90.70;;;;;;5043314;28;20030;-64
2022/05/26 08:31:24;;;;;;;7.28;2.97;;;18.30;90.60;;;;;;5057852;28;20078;-64
2022/05/26 08:33:51;;;;;;;10.77;3.33;;;18.40;90.30;;;;;;5064604;28;20043;-64
2022/05/26 08:36:24;;;;;;;6.28;2.40;;;18.40;90.00;;;;;;5053259;28;20048;-64
2022/05/26 08:38:50;;;;;;;8.43;2.45;;;18.40;90.10;;;;;;5069307;28;20431;-64
2022/05/26 08:41:40;;;;;;;7.30;2.25;;;18.40;89.50;;;;;;5056423;28;20373;-64
2022/05/26 08:44:11;;;;;;;7.88;3.13;;;18.40;89.20;;;;;;5062699;28;20550;-64
2022/05/26 08:46:50;;;;;;;7.18;1.80;;;18.40;89.00;;;;;;5066591;28;20028;-64
2022/05/26 08:49:39;;;;;;;8.00;2.20;;;18.50;88.70;;;;;;5056007;28;20020;-64
2022/05/26 08:52:10;;;;;;;6.72;2.67;;;18.40;88.60;;;;;;5062679;28;20508;-64
2022/05/26 08:54:58;;;;;;;6.85;2.00;;;18.40;88.80;;;;;;5066780;28;20067;-64
2022/05/26 08:57:28;;;;;;;7.05;1.70;;;18.30;88.00;;;;;;5041522;28;20020;-64
2022/05/26 08:59:53;;;;;;;4.90;1.40;;;18.30;88.90;;;;;;5053045;28;20116;-64
2022/05/26 09:02:27;;;;;;;5.70;2.15;;;18.40;88.30;;;;;;5064658;28;20111;-64
2022/05/26 09:04:56;;;;;;;4.30;1.20;;;18.50;87.70;;;;;;5056098;28;20021;-64
2022/05/26 09:13:14;;;;;;;7.95;1.40;;;19.00;85.80;;;;;;5069302;28;20036;-64
2022/05/26 09:15:40;;;;;;;2.30;0.98;;;19.10;85.10;;;;;;5059003;28;20047;-64
2022/05/26 09:18:17;;;;;;;4.35;0.85;;;19.30;84.10;;;;;;5062380;28;20118;-64
2022/05/26 09:20:45;;;;;;;5.68;1.20;;;19.30;82.20;;;;;;5067834;28;20024;-64
2022/05/26 09:23:22;;;;;;;3.17;0.98;;;19.30;81.20;;;;;;5055778;28;20020;-64
2022/05/26 09:26:01;;;;;;;3.13;0.90;;;19.40;81.00;;;;;;5047256;28;20029;-64
2022/05/26 09:28:48;;;;;;;4.43;1.55;;;19.40;81.30;;;;;;5065356;28;20081;-64
2022/05/26 09:31:16;;;;;;;4.22;1.13;;;19.40;81.30;;;;;;5056034;28;20040;-64
2022/05/26 09:33:42;;;;;;;4.03;1.10;;;19.40;80.60;;;;;;5065456;28;20017;-64
2022/05/26 09:36:21;;;;;;;4.93;1.70;;;19.40;80.10;;;;;;5052707;28;20021;-64
2022/05/26 09:38:47;;;;;;;7.03;1.40;;;19.40;81.40;;;;;;5068016;28;20021;-64
2022/05/26 09:41:16;;;;;;;5.10;1.00;;;19.60;81.80;;;;;;5053120;28;20029;-64
2022/05/26 09:43:52;;;;;;;6.57;1.00;;;19.70;80.50;;;;;;5052430;28;20403;-64
2022/05/26 09:46:21;;;;;;;5.63;1.00;;;19.80;79.80;;;;;;5052007;28;20025;-64
2022/05/26 09:48:52;;;;;;;4.55;1.02;;;19.90;79.50;;;;;;5052478;28;20484;-64
2022/05/26 09:51:27;;;;;;;6.45;1.25;;;20.00;77.90;;;;;;5052056;28;20516;-63
2022/05/26 09:53:54;;;;;;;3.47;0.80;;;20.00;77.20;;;;;;5052757;28;20037;-64
2022/05/26 09:56:40;;;;;;;3.28;1.00;;;20.00;76.90;;;;;;5052412;28;20025;-64
2022/05/26 09:59:24;;;;;;;6.22;1.17;;;19.90;77.10;;;;;;5052573;28;20028;-64
2022/05/26 10:01:57;;;;;;;3.72;0.88;;;19.90;76.90;;;;;;5052343;28;20067;-64
2022/05/26 10:04:50;;;;;;;5.32;1.35;;;19.90;77.00;;;;;;5052366;28;20028;-64
2022/05/26 10:07:38;;;;;;;5.90;1.85;;;20.00;76.60;;;;;;5052392;28;20033;-64
2022/05/26 10:10:27;;;;;;;5.65;1.20;;;20.10;76.40;;;;;;5052458;28;20077;-64
2022/05/26 10:13:13;;;;;;;3.85;0.80;;;20.20;75.20;;;;;;5049034;28;20041;-64
2022/05/26 10:15:57;;;;;;;5.45;0.93;;;20.20;74.90;;;;;;5052358;28;20028;-64
2022/05/26 10:18:44;;;;;;;5.45;1.00;;;20.10;73.60;;;;;;5052190;28;20059;-63
2022/05/26 10:21:23;;;;;;;4.57;1.10;;;20.00;74.30;;;;;;5052310;28;20064;-63
2022/05/26 10:23:58;;;;;;;;;;;20.10;74.70;;;;;;5052241;28;20028;-63
2022/05/26 10:26:32;;;;;;;4.13;0.80;;;20.20;74.40;;;;;;5051964;28;19958;-63
2022/05/26 10:29:09;;;;;;;3.70;0.93;;;20.30;72.20;;;;;;5051656;28;20078;-63
2022/05/26 10:31:54;;;;;;;3.97;0.95;;;20.40;70.20;;;;;;5051245;28;20053;-63
2022/05/26 10:34:48;;;;;;;4.97;1.13;;;20.40;70.00;;;;;;5051800;28;20017;-63
2022/05/26 10:37:28;;;;;;;3.92;0.88;;;20.40;71.20;;;;;;5051502;28;20029;-63
2022/05/26 10:40:12;;;;;;;4.53;1.30;;;20.40;72.80;;;;;;5052075;28;20025;-63
2022/05/26 10:42:43;;;;;;;3.25;0.85;;;20.40;73.30;;;;;;5051929;28;20504;-63
2022/05/26 10:45:17;;;;;;;5.05;1.00;;;20.50;74.20;;;;;;5052073;28;20044;-63
2022/05/26 10:47:54;;;;;;;4.07;1.00;;;20.70;73.70;;;;;;5051345;28;20559;-63
2022/05/26 10:50:20;;;;;;;2.28;0.90;;;20.90;72.50;;;;;;5046465;28;20402;-63
2022/05/26 10:53:23;;;;;;;4.32;0.77;;;20.90;71.10;;;;;;5051839;28;20045;-64
2022/05/26 10:56:07;;;;;;;4.40;0.85;;;20.90;69.90;;;;;;5050652;28;20056;-64
2022/05/26 10:58:37;;;;;;;5.55;0.90;;;20.90;69.50;;;;;;5049562;28;20016;-64
2022/05/26 11:01:15;;;;;;;3.78;0.70;;;20.90;67.00;;;;;;5053836;28;20131;-64
2022/05/26 11:03:45;;;;;;;3.50;0.80;;;21.00;68.30;;;;;;5054005;28;20020;-64
2022/05/26 11:06:26;;;;;;;4.00;1.02;;;21.10;68.80;;;;;;5051480;28;20025;-64
2022/05/26 11:09:19;;;;;;;6.03;1.70;;;21.10;69.30;;;;;;5051586;28;20428;-64
2022/05/26 11:11:57;;;;;;;2.88;0.98;;;21.20;69.50;;;;;;5053186;28;20033;-64
2022/05/26 11:17:42;;;;;;;;;;;21.50;69.00;;;;;;5051814;28;20024;-64
2022/05/26 11:20:27;;;;;;;4.57;0.80;;;21.50;67.80;;;;;;5063574;28;19913;-64
2022/05/26 11:22:53;;;;;;;3.75;1.02;;;21.50;66.60;;;;;;5055015;28;20456;-64
2022/05/26 11:25:27;;;;;;;5.53;1.10;;;21.60;66.60;;;;;;5049003;28;20019;-64
2022/05/26 11:27:58;;;;;;;4.38;1.13;;;21.80;66.90;;;;;;5054845;28;20013;-64
2022/05/26 11:36:42;;;;;;;4.93;1.00;;;22.20;66.10;;;;;;5055807;28;20400;-64
2022/05/26 11:39:36;;;;;;;4.30;1.08;;;22.30;65.60;;;;;;5050133;28;20066;-64
2022/05/26 11:42:27;;;;;;;5.07;1.05;;;22.10;64.40;;;;;;5057993;28;20028;-64
2022/05/26 11:45:08;;;;;;;2.88;0.90;;;22.10;64.70;;;;;;5064076;28;20519;-64
2022/05/26 11:47:52;;;;;;;6.38;1.20;;;22.20;66.20;;;;;;5061630;28;20096;-64
2022/05/26 11:50:55;;;;;;;3.55;0.80;;;22.40;65.80;;;;;;5060879;28;20017;-64
2022/05/26 11:53:34;;;;;;;3.30;0.80;;;22.50;64.70;;;;;;5045464;28;20041;-64
2022/05/26 11:56:26;;;;;;;4.20;1.00;;;22.70;63.60;;;;;;5061709;28;20523;-64
2022/05/26 11:59:20;;;;;;;5.07;0.80;;;22.80;63.40;;;;;;5060345;28;20025;-64
2022/05/26 12:02:06;;;;;;;3.80;0.60;;;22.90;62.70;;;;;;5048336;28;20025;-64
2022/05/26 12:04:37;;;;;;;4.45;0.68;;;23.00;62.20;;;;;;5040260;28;20025;-64
2022/05/26 12:07:14;;;;;;;4.45;0.88;;;23.00;62.00;;;;;;5052354;28;20033;-64
2022/05/26 12:09:50;;;;;;;3.88;1.00;;;23.20;61.60;;;;;;5044727;28;20029;-64
2022/05/26 12:12:16;;;;;;;4.63;1.27;;;23.10;60.60;;;;;;5051486;28;20080;-64
2022/05/26 12:15:07;;;;;;;3.35;0.70;;;23.00;61.40;;;;;;5051321;28;20468;-64
2022/05/26 12:17:52;;;;;;;3.72;0.88;;;23.10;61.70;;;;;;5052926;28;20079;-64
2022/05/26 12:20:18;;;;;;;5.15;1.40;;;23.20;60.80;;;;;;5053206;28;20423;-64
2022/05/26 12:22:47;;;;;;;4.55;0.70;;;23.20;60.80;;;;;;5051608;28;20025;-64
2022/05/26 12:25:32;;;;;;;2.78;0.63;;;23.30;60.70;;;;;;5055096;28;20090;-64
2022/05/26 12:28:22;;;;;;;3.70;0.68;;;23.50;60.40;;;;;;5062648;28;20032;-64
2022/05/26 12:30:49;;;;;;;6.55;1.00;;;23.60;60.30;;;;;;5069397;28;20028;-64
2022/05/26 12:33:20;;;;;;;3.55;1.05;;;23.60;59.50;;;;;;5058226;28;20535;-64
2022/05/26 12:36:04;;;;;;;2.78;0.70;;;23.50;59.80;;;;;;5063960;28;20036;-64
2022/05/26 12:38:49;;;;;;;3.55;0.73;;;23.70;59.90;;;;;;5068273;28;20020;-64
2022/05/26 12:41:49;;;;;;;3.53;0.80;;;23.70;60.00;;;;;;5042005;28;20047;-64
2022/05/26 12:44:35;;;;;;;2.58;0.73;;;23.90;59.60;;;;;;5059645;28;20483;-64
2022/05/26 12:47:39;;;;;;;3.38;0.80;;;24.00;59.00;;;;;;5069318;28;20020;-64
2022/05/26 12:50:09;;;;;;;3.47;0.80;;;23.90;59.00;;;;;;5064984;28;20036;-64
2022/05/26 12:52:48;;;;;;;3.78;0.82;;;24.00;59.30;;;;;;5057003;28;20084;-64
2022/05/26 12:55:19;;;;;;;;;;;24.00;59.50;;;;;;5042831;28;20020;-64
2022/05/26 12:58:11;;;;;;;5.88;1.48;;;24.10;59.40;;;;;;5063771;28;19912;-65
2022/05/26 13:00:50;;;;;;;4.78;1.20;;;24.00;58.40;;;;;;5066125;28;20035;-64
2022/05/26 13:03:18;;;;;;;5.53;1.10;;;23.90;58.40;;;;;;5042932;28;20036;-64
2022/05/26 13:05:53;;;;;;;2.77;1.10;;;23.70;58.60;;;;;;5063022;28;20042;-64
2022/05/26 13:08:21;;;;;;;4.32;2.08;;;23.60;59.80;;;;;;5059002;28;20028;-64
2022/05/26 13:10:55;;;;;;;4.25;1.50;;;23.80;60.30;;;;;;5069158;28;20127;-64
2022/05/26 13:13:38;;;;;;;4.80;1.63;;;23.80;59.80;;;;;;5053838;28;20035;-64
2022/05/26 13:16:25;;;;;;;5.75;2.22;;;23.90;59.70;;;;;;5051233;28;20017;-64
2022/05/26 13:18:52;;;;;;;5.40;2.20;;;24.00;58.90;;;;;;5063022;28;20036;-65
2022/05/26 13:21:21;;;;;;;5.70;1.80;;;24.10;58.90;;;;;;5048594;28;20029;-64
2022/05/26 13:23:50;;;;;;;5.60;1.98;;;24.20;59.40;;;;;;5044365;28;20040;-64
2022/05/26 13:26:16;;;;;;;;;;;24.40;59.20;;;;;;5046197;28;20388;-64
2022/05/26 13:28:51;;;;;;;7.20;2.35;;;24.50;59.00;;;;;;5048055;28;19940;-64
2022/05/26 13:34:06;;;;;;;5.85;2.30;;;24.60;58.90;;;;;;5052666;28;20036;-64
2022/05/26 13:36:42;;;;;;;7.05;2.42;;;24.60;59.10;;;;;;5052429;28;20063;-64
2022/05/26 13:39:09;;;;;;;8.10;3.42;;;24.50;59.00;;;;;;5040319;28;20057;-64
2022/05/26 13:41:36;;;;;;;7.35;3.10;;;24.60;58.90;;;;;;5036626;28;20060;-64
2022/05/26 13:44:05;;;;;;;6.18;2.95;;;24.50;58.30;;;;;;5042894;28;20489;-64
2022/05/26 13:46:38;;;;;;;3.83;2.78;;;24.40;58.40;;;;;;5051645;28;20033;-64
2022/05/26 13:49:26;;;;;;;7.78;3.15;;;24.40;58.50;;;;;;5051004;28;20116;-64
2022/05/26 13:51:53;;;;;;;5.63;2.92;;;24.30;58.20;;;;;;5052349;28;20037;-64
2022/05/26 13:54:35;;;;;;;5.40;3.05;;;24.20;58.80;;;;;;5051782;28;20025;-64